createdAt,value
2022-09-06T00:00:58.438Z,9.55
2022-09-06T00:03:27.673Z,14.82
2022-09-06T00:05:54.697Z,12.40
2022-09-06T00:08:21.539Z,9.48
2022-09-06T00:10:48.327Z,8.73
2022-09-06T00:13:15.058Z,12.95
2022-09-06T00:15:41.859Z,10.23
2022-09-06T00:18:08.734Z,11.48
2022-09-06T00:20:41.324Z,7.28
2022-09-06T00:23:08.799Z,13.65
2022-09-06T00:25:36.166Z,10.88
2022-09-06T00:28:05.690Z,12.73
2022-09-06T00:30:33.564Z,8.87
2022-09-06T00:33:00.483Z,12.05
2022-09-06T00:35:27.951Z,9.10
2022-09-06T00:38:02.275Z,12.23
2022-09-06T00:40:30.612Z,12.57
2022-09-06T00:42:58.236Z,11.35
2022-09-06T00:45:27.577Z,10.98
2022-09-06T00:47:54.964Z,8.38
2022-09-06T00:50:22.079Z,12.45
2022-09-06T00:52:52.700Z,7.43
2022-09-06T00:55:21.386Z,9.45
2022-09-06T00:57:51.377Z,12.60
2022-09-06T01:00:20.158Z,12.05
2022-09-06T01:02:48.458Z,7.53
2022-09-06T01:05:16.128Z,12.55
2022-09-06T01:07:59.731Z,8.43
2022-09-06T01:10:38.722Z,9.98
2022-09-06T01:13:50.298Z,10.00
2022-09-06T01:16:54.392Z,8.10
2022-09-06T01:20:10.670Z,7.57
2022-09-06T01:23:04.728Z,7.20
2022-09-06T01:25:56.070Z,13.23
2022-09-06T01:28:45.218Z,9.98
2022-09-06T01:31:35.349Z,8.73
2022-09-06T01:34:07.945Z,8.68
2022-09-06T01:37:10.285Z,11.07
2022-09-06T01:39:39.427Z,7.88
2022-09-06T01:42:14.206Z,8.32
2022-09-06T01:44:45.507Z,8.98
2022-09-06T01:47:42.057Z,10.48
2022-09-06T01:50:39.871Z,8.63
2022-09-06T01:53:54.832Z,9.90
2022-09-06T01:56:30.358Z,9.38
2022-09-06T01:59:29.970Z,9.10
2022-09-06T02:02:10.952Z,10.33
2022-09-06T02:05:01.871Z,10.68
2022-09-06T02:07:31.435Z,8.93
2022-09-06T02:10:06.952Z,9.90
2022-09-06T02:12:39.089Z,5.25
2022-09-06T02:15:15.020Z,10.43
2022-09-06T02:17:52.400Z,9.23
2022-09-06T02:20:31.130Z,8.65
2022-09-06T02:23:01.937Z,5.80
2022-09-06T02:25:35.572Z,8.23
2022-09-06T02:28:02.823Z,9.68
2022-09-06T02:30:30.066Z,9.60
2022-09-06T02:33:01.912Z,8.00
2022-09-06T02:35:29.175Z,8.10
2022-09-06T02:37:56.465Z,8.35
2022-09-06T02:40:23.522Z,9.50
2022-09-06T02:42:50.245Z,10.45
2022-09-06T02:45:16.967Z,7.53
2022-09-06T02:47:44.063Z,8.45
2022-09-06T02:50:10.800Z,8.85
2022-09-06T02:52:37.505Z,10.98
2022-09-06T02:55:04.632Z,8.20
2022-09-06T02:57:31.323Z,9.77
2022-09-06T02:59:58.075Z,12.68
2022-09-06T03:02:25.046Z,9.57
2022-09-06T03:04:51.839Z,12.48
2022-09-06T03:07:18.846Z,6.80
2022-09-06T03:09:45.550Z,16.48
2022-09-06T03:12:12.332Z,8.32
2022-09-06T03:14:41.201Z,10.27
2022-09-06T03:17:08.009Z,10.63
2022-09-06T03:19:34.736Z,8.70
2022-09-06T03:22:01.561Z,8.40
2022-09-06T03:24:28.282Z,14.93
2022-09-06T03:26:54.965Z,7.40
2022-09-06T03:29:21.691Z,10.05
2022-09-06T03:31:48.373Z,8.52
2022-09-06T03:34:15.118Z,7.95
2022-09-06T03:36:41.835Z,6.95
2022-09-06T03:39:08.555Z,8.00
2022-09-06T03:41:35.398Z,10.20
2022-09-06T03:44:02.348Z,5.70
2022-09-06T03:46:30.790Z,8.73
2022-09-06T03:48:59.152Z,7.55
2022-09-06T03:51:25.998Z,8.30
2022-09-06T03:53:52.795Z,10.07
2022-09-06T03:56:20.054Z,5.78
2022-09-06T03:58:46.866Z,8.90
2022-09-06T04:01:14.097Z,8.75
2022-09-06T04:03:41.461Z,8.27
2022-09-06T04:06:08.887Z,8.80
2022-09-06T04:08:36.293Z,10.50
2022-09-06T04:11:03.410Z,6.28
2022-09-06T04:13:31.474Z,7.40
2022-09-06T04:15:58.768Z,7.15
2022-09-06T04:18:25.952Z,6.90
2022-09-06T04:20:55.921Z,9.50
2022-09-06T04:23:25.476Z,9.45
2022-09-06T04:25:54.556Z,16.63
2022-09-06T04:28:22.543Z,15.93
2022-09-06T04:30:54.119Z,19.75
2022-09-06T04:33:21.363Z,19.77
2022-09-06T04:35:51.795Z,16.58
2022-09-06T04:40:45.176Z,15.00
2022-09-06T04:43:11.910Z,10.00
2022-09-06T04:45:38.810Z,7.72
2022-09-06T04:48:05.689Z,9.00
2022-09-06T04:50:32.566Z,9.73
2022-09-06T04:52:59.293Z,10.32
2022-09-06T04:55:26.584Z,9.80
2022-09-06T04:57:53.311Z,8.38
2022-09-06T05:00:20.131Z,10.43
2022-09-06T05:02:46.852Z,14.32
2022-09-06T05:05:13.707Z,11.82
2022-09-06T05:07:40.396Z,12.70
2022-09-06T05:10:07.301Z,7.70
2022-09-06T05:12:33.979Z,10.88
2022-09-06T05:15:00.716Z,16.02
2022-09-06T05:17:27.489Z,9.32
2022-09-06T05:19:54.210Z,13.80
2022-09-06T05:22:21.007Z,12.18
2022-09-06T05:24:47.798Z,14.20
2022-09-06T05:27:14.608Z,9.70
2022-09-06T05:29:41.650Z,14.07
2022-09-06T05:32:08.468Z,10.52
2022-09-06T05:34:35.239Z,12.15
2022-09-06T05:37:02.005Z,15.82
2022-09-06T05:39:28.754Z,14.23
2022-09-06T05:41:55.492Z,13.45
2022-09-06T05:44:22.172Z,13.27
2022-09-06T05:46:48.981Z,13.07
2022-09-06T05:49:15.746Z,16.23
2022-09-06T05:51:42.622Z,17.48
2022-09-06T05:54:11.945Z,14.88
2022-09-06T05:56:38.667Z,15.30
2022-09-06T05:59:06.074Z,16.92
2022-09-06T06:01:32.918Z,12.98
2022-09-06T06:04:04.673Z,14.02
2022-09-06T06:06:34.026Z,19.55
2022-09-06T06:09:01.032Z,10.00
2022-09-06T06:11:28.478Z,12.13
2022-09-06T06:13:55.402Z,13.43
2022-09-06T06:16:22.880Z,11.68
2022-09-06T06:18:52.550Z,14.50
2022-09-06T06:21:26.533Z,13.15
2022-09-06T06:23:58.442Z,12.35
2022-09-06T06:26:26.600Z,10.77
2022-09-06T06:28:53.643Z,12.57
2022-09-06T06:31:22.451Z,12.52
2022-09-06T06:33:49.640Z,10.20
2022-09-06T06:36:16.395Z,13.48
2022-09-06T06:38:45.250Z,11.85
2022-09-06T06:41:14.469Z,12.25
2022-09-06T06:43:41.613Z,10.55
2022-09-06T06:46:10.733Z,11.70
2022-09-06T06:48:40.613Z,12.20
2022-09-06T06:51:08.535Z,10.20
2022-09-06T06:53:35.921Z,9.38
2022-09-06T06:56:16.718Z,15.90
2022-09-06T06:58:44.580Z,11.70
2022-09-06T07:01:12.118Z,10.43
2022-09-06T07:03:39.345Z,13.07
2022-09-06T07:08:36.135Z,11.65
2022-09-06T07:11:04.150Z,11.05
2022-09-06T07:13:31.399Z,13.43
2022-09-06T07:16:18.192Z,14.48
2022-09-06T07:18:45.965Z,11.68
2022-09-06T07:24:08.529Z,15.07
2022-09-06T07:26:37.558Z,17.70
2022-09-06T07:29:05.592Z,12.82
2022-09-06T07:34:20.523Z,16.33
2022-09-06T07:36:48.290Z,19.13
2022-09-06T07:39:15.048Z,16.08
2022-09-06T07:41:42.913Z,13.57
2022-09-06T07:44:09.753Z,15.10
2022-09-06T07:46:36.657Z,14.18
2022-09-06T07:49:07.111Z,10.52
2022-09-06T07:51:33.872Z,13.52
2022-09-06T07:54:34.682Z,16.98
2022-09-06T07:56:47.752Z,10.15
2022-09-06T07:59:14.831Z,11.70
2022-09-06T08:01:42.460Z,13.40
2022-09-06T08:04:15.612Z,15.80
2022-09-06T08:09:35.130Z,12.70
2022-09-06T08:12:07.399Z,11.13
2022-09-06T08:14:35.139Z,15.18
2022-09-06T08:17:02.989Z,14.05
2022-09-06T08:19:29.857Z,12.13
2022-09-06T08:21:56.754Z,16.10
2022-09-06T08:24:23.726Z,8.40
2022-09-06T08:26:50.489Z,11.10
2022-09-06T08:29:17.416Z,13.63
2022-09-06T08:31:45.300Z,15.55
2022-09-06T08:34:12.885Z,13.35
2022-09-06T08:36:40.244Z,11.90
2022-09-06T08:39:11.903Z,11.57
2022-09-06T08:42:02.984Z,10.65
2022-09-06T08:47:22.652Z,8.48
2022-09-06T08:50:04.115Z,13.20
2022-09-06T08:53:17.331Z,12.90
2022-09-06T08:56:13.459Z,6.97
2022-09-06T08:59:06.604Z,11.70
2022-09-06T09:01:59.079Z,6.75
2022-09-06T09:04:27.926Z,10.20
2022-09-06T09:07:00.432Z,13.90
2022-09-06T09:09:31.408Z,5.63
2022-09-06T09:12:01.007Z,11.48
2022-09-06T09:14:29.140Z,6.50
2022-09-06T09:17:05.351Z,8.52
2022-09-06T09:19:36.704Z,7.07
2022-09-06T09:22:04.076Z,5.10
2022-09-06T09:24:32.315Z,5.93
2022-09-06T09:27:13.405Z,8.75
2022-09-06T09:32:44.977Z,5.45
2022-09-06T09:35:41.086Z,11.32
2022-09-06T09:38:13.247Z,60.15
2022-09-06T09:41:02.885Z,6.75
2022-09-06T09:43:41.056Z,81.00
2022-09-06T09:46:10.925Z,8.82
2022-09-06T09:48:38.388Z,5.70
2022-09-06T09:51:26.589Z,6.43
2022-09-06T09:53:59.760Z,4.95
2022-09-06T09:56:52.909Z,5.38
2022-09-06T09:59:21.452Z,3.70
2022-09-06T10:01:48.675Z,5.07
2022-09-06T10:04:44.247Z,6.32
2022-09-06T10:07:20.511Z,5.20
2022-09-06T10:09:50.110Z,7.97
2022-09-06T10:12:41.207Z,6.93
2022-09-06T10:15:10.937Z,5.93
2022-09-06T10:17:51.486Z,6.43
2022-09-06T10:20:19.031Z,6.05
2022-09-06T10:22:57.526Z,3.92
2022-09-06T10:25:49.210Z,5.40
2022-09-06T10:28:41.895Z,5.32
2022-09-06T10:31:27.398Z,4.55
2022-09-06T10:33:59.856Z,7.82
2022-09-06T10:36:30.332Z,5.30
2022-09-06T10:39:19.078Z,5.03
2022-09-06T10:42:21.316Z,4.63
2022-09-06T10:44:58.746Z,3.90
2022-09-06T10:47:37.734Z,6.25
2022-09-06T10:50:08.879Z,6.38
2022-09-06T10:52:42.426Z,3.50
2022-09-06T10:55:14.073Z,7.00
2022-09-06T11:00:47.341Z,4.93
2022-09-06T11:06:24.298Z,4.65
2022-09-06T11:09:26.101Z,7.70
2022-09-06T11:12:15.896Z,5.65
2022-09-06T11:14:42.834Z,3.78
2022-09-06T11:17:22.309Z,4.80
2022-09-06T11:19:56.799Z,5.00
2022-09-06T11:22:55.928Z,5.43
2022-09-06T11:25:29.236Z,4.32
2022-09-06T11:27:59.930Z,6.18
2022-09-06T11:30:29.821Z,3.90
2022-09-06T11:33:24.250Z,10.57
2022-09-06T11:35:51.645Z,6.90
2022-09-06T11:38:26.940Z,4.60
2022-09-06T11:41:00.862Z,2.88
2022-09-06T11:43:48.238Z,6.40
2022-09-06T11:46:33.527Z,2.42
2022-09-06T11:49:20.899Z,3.10
2022-09-06T11:51:47.657Z,6.38
2022-09-06T11:54:21.914Z,7.45
2022-09-06T11:56:59.826Z,3.13
2022-09-06T11:59:54.426Z,3.88
2022-09-06T12:02:36.693Z,2.75
2022-09-06T12:05:09.696Z,7.15
2022-09-06T12:08:14.181Z,5.45
2022-09-06T12:10:40.907Z,5.30
2022-09-06T12:13:33.600Z,8.40
2022-09-06T12:16:00.912Z,6.82
2022-09-06T12:18:49.424Z,6.68
2022-09-06T12:21:36.561Z,8.18
2022-09-06T12:24:05.391Z,5.97
2022-09-06T12:26:55.650Z,2.67
2022-09-06T12:29:25.870Z,6.13
2022-09-06T12:31:55.153Z,3.42
2022-09-06T12:34:25.400Z,5.22
2022-09-06T12:36:56.487Z,5.32
2022-09-06T12:39:23.915Z,4.57
2022-09-06T12:42:12.327Z,3.50
2022-09-06T12:44:43.298Z,7.47
2022-09-06T12:47:25.400Z,5.22
2022-09-06T12:50:17.951Z,6.65
2022-09-06T12:52:46.284Z,5.60
2022-09-06T12:55:26.047Z,8.13
2022-09-06T12:57:58.134Z,3.65
2022-09-06T13:00:27.670Z,3.15
2022-09-06T13:03:08.432Z,6.20
2022-09-06T13:05:40.049Z,4.05
2022-09-06T13:08:22.870Z,5.25
2022-09-06T13:10:49.920Z,8.27
2022-09-06T13:13:23.356Z,5.30
2022-09-06T13:15:50.467Z,9.07
2022-09-06T13:18:23.745Z,3.75
2022-09-06T13:21:11.633Z,7.32
2022-09-06T13:23:51.409Z,8.55
2022-09-06T13:26:38.769Z,6.50
2022-09-06T13:29:17.450Z,10.40
2022-09-06T13:31:46.528Z,12.43
2022-09-06T13:34:27.671Z,8.23
2022-09-06T13:37:14.781Z,11.05
2022-09-06T13:39:46.332Z,7.05
2022-09-06T13:42:29.601Z,9.00
2022-09-06T13:45:01.786Z,11.32
2022-09-06T13:47:29.949Z,6.60
2022-09-06T13:49:56.727Z,6.57
2022-09-06T13:52:23.661Z,7.82
2022-09-06T13:54:50.462Z,6.60
2022-09-06T13:57:22.220Z,4.78
2022-09-06T13:59:50.907Z,7.07
2022-09-06T14:02:19.832Z,4.30
2022-09-06T14:04:46.897Z,6.25
2022-09-06T14:07:13.649Z,5.35
2022-09-06T14:09:40.396Z,11.88
2022-09-06T14:12:07.177Z,6.63
2022-09-06T14:14:34.591Z,5.53
2022-09-06T14:17:01.331Z,8.25
2022-09-06T14:19:28.831Z,9.38
2022-09-06T14:21:55.854Z,4.22
2022-09-06T14:24:22.817Z,8.48
2022-09-06T14:26:49.549Z,8.20
2022-09-06T14:29:16.575Z,12.00
2022-09-06T14:31:43.289Z,9.90
2022-09-06T14:34:10.028Z,8.35
2022-09-06T14:36:36.741Z,3.03
2022-09-06T14:39:04.193Z,11.68
2022-09-06T14:41:30.940Z,6.72
2022-09-06T14:43:58.995Z,4.75
2022-09-06T14:46:27.622Z,9.65
2022-09-06T14:49:00.108Z,8.93
2022-09-06T14:51:27.019Z,13.57
2022-09-06T14:53:57.495Z,16.48
2022-09-06T14:56:24.925Z,12.35
2022-09-06T14:58:57.435Z,10.35
2022-09-06T15:01:37.117Z,13.65
2022-09-06T15:04:06.722Z,9.73
2022-09-06T15:06:36.773Z,3.78
2022-09-06T15:11:48.950Z,4.55
2022-09-06T15:14:22.506Z,5.40
2022-09-06T15:16:55.306Z,4.75
2022-09-06T15:19:24.390Z,8.25
2022-09-06T15:21:51.473Z,8.75
2022-09-06T15:24:18.293Z,4.45
2022-09-06T15:26:45.110Z,7.53
2022-09-06T15:29:13.266Z,4.68
2022-09-06T15:31:40.462Z,6.20
2022-09-06T15:34:07.997Z,6.00
2022-09-06T15:36:36.247Z,10.40
2022-09-06T15:39:04.674Z,16.77
2022-09-06T15:41:33.830Z,8.95
2022-09-06T15:44:03.170Z,8.68
2022-09-06T15:46:50.481Z,8.48
2022-09-06T15:49:28.322Z,13.05
2022-09-06T15:52:00.853Z,7.93
2022-09-06T15:54:47.317Z,11.43
2022-09-06T15:57:16.288Z,11.00
2022-09-06T15:59:43.546Z,9.70
2022-09-06T16:02:10.566Z,7.70
2022-09-06T16:04:37.343Z,8.57
2022-09-06T16:07:04.170Z,17.85
2022-09-06T16:09:31.772Z,19.40
2022-09-06T16:11:58.473Z,15.20
2022-09-06T16:14:25.341Z,13.10
2022-09-06T16:16:54.067Z,12.52
2022-09-06T16:19:20.897Z,10.73
2022-09-06T16:21:47.596Z,17.75
2022-09-06T16:24:14.766Z,15.20
2022-09-06T16:26:43.956Z,16.98
2022-09-06T16:29:12.831Z,17.08
2022-09-06T16:31:40.739Z,19.30
2022-09-06T16:34:09.021Z,23.67
2022-09-06T16:36:35.880Z,20.90
2022-09-06T16:39:02.752Z,21.27
2022-09-06T16:41:42.920Z,16.85
2022-09-06T16:46:40.326Z,18.52
2022-09-06T16:49:07.193Z,21.52
2022-09-06T16:51:33.991Z,17.38
2022-09-06T16:54:01.472Z,16.67
2022-09-06T16:56:34.974Z,20.35
2022-09-06T16:59:04.521Z,17.45
2022-09-06T17:01:32.568Z,22.80
2022-09-06T17:04:02.364Z,23.27
2022-09-06T17:06:30.256Z,19.35
2022-09-06T17:09:01.053Z,18.83
2022-09-06T17:11:29.609Z,23.65
2022-09-06T17:13:57.234Z,21.90
2022-09-06T17:16:44.065Z,23.58
2022-09-06T17:19:13.555Z,18.98
2022-09-06T17:21:40.821Z,19.33
2022-09-06T17:24:09.235Z,19.55
2022-09-06T17:26:38.403Z,19.77
2022-09-06T17:29:06.038Z,18.45
2022-09-06T17:31:33.453Z,22.70
2022-09-06T17:34:00.303Z,20.38
2022-09-06T17:36:32.723Z,20.85
2022-09-06T17:39:02.041Z,20.15
2022-09-06T17:41:34.334Z,19.93
2022-09-06T17:44:01.076Z,26.25
2022-09-06T17:46:29.034Z,27.40
2022-09-06T17:48:56.954Z,25.85
2022-09-06T17:51:25.421Z,30.05
2022-09-06T17:53:52.808Z,33.90
2022-09-06T17:56:20.840Z,28.90
2022-09-06T17:59:01.109Z,25.55
2022-09-06T18:03:59.325Z,25.40
2022-09-06T18:06:28.147Z,18.45
2022-09-06T18:08:56.706Z,19.55
2022-09-06T18:11:29.682Z,19.63
2022-09-06T18:13:59.325Z,21.50
2022-09-06T18:16:27.892Z,17.58
2022-09-06T18:18:59.889Z,17.23
2022-09-06T18:21:28.714Z,18.30
2022-09-06T18:23:56.203Z,15.10
2022-09-06T18:26:23.710Z,20.48
2022-09-06T18:28:50.968Z,19.15
2022-09-06T18:31:19.343Z,14.80
2022-09-06T18:33:46.503Z,19.42
2022-09-06T18:36:15.542Z,15.23
2022-09-06T18:38:43.055Z,17.92
2022-09-06T18:41:34.700Z,16.10
2022-09-06T18:44:03.279Z,15.05
2022-09-06T18:46:31.849Z,18.35
2022-09-06T18:48:59.451Z,19.88
2022-09-06T18:51:27.210Z,21.33
2022-09-06T18:53:56.677Z,19.17
2022-09-06T18:56:24.046Z,20.75
2022-09-06T18:58:55.495Z,21.60
2022-09-06T19:01:22.561Z,36.83
2022-09-06T19:03:49.401Z,38.35
2022-09-06T19:06:18.845Z,38.20
2022-09-06T19:08:46.939Z,43.23
2022-09-06T19:11:17.017Z,45.65
2022-09-06T19:13:45.045Z,44.17
2022-09-06T19:16:13.816Z,39.45
2022-09-06T19:18:41.467Z,32.20
2022-09-06T19:21:09.365Z,31.30
2022-09-06T19:23:41.005Z,32.55
2022-09-06T19:26:19.635Z,28.85
2022-09-06T19:28:51.928Z,29.88
2022-09-06T19:31:19.524Z,29.85
2022-09-06T19:33:47.954Z,27.75
2022-09-06T19:36:17.929Z,28.50
2022-09-06T19:41:38.015Z,34.65
2022-09-06T19:44:07.875Z,23.55
2022-09-06T19:46:35.282Z,26.30
2022-09-06T19:49:02.283Z,26.70
2022-09-06T19:51:29.564Z,16.67
2022-09-06T19:54:00.404Z,14.45
2022-09-06T19:56:33.788Z,17.27
2022-09-06T19:59:03.361Z,16.23
2022-09-06T20:01:32.971Z,13.50
2022-09-06T20:04:02.668Z,13.45
2022-09-06T20:06:30.217Z,12.25
2022-09-06T20:08:59.278Z,10.27
2022-09-06T20:11:29.199Z,10.13
2022-09-06T20:13:56.193Z,9.25
2022-09-06T20:16:24.944Z,8.20
2022-09-06T20:18:52.419Z,11.05
2022-09-06T20:21:19.136Z,12.38
2022-09-06T20:23:50.747Z,9.40
2022-09-06T20:26:18.137Z,7.20
2022-09-06T20:28:45.430Z,8.13
2022-09-06T20:31:16.348Z,11.70
2022-09-06T20:33:47.148Z,11.88
2022-09-06T20:36:17.031Z,13.15
2022-09-06T20:38:44.852Z,12.65
2022-09-06T20:41:17.480Z,11.23
2022-09-06T20:43:45.218Z,22.23
2022-09-06T20:46:14.580Z,24.88
2022-09-06T20:48:44.905Z,16.57
2022-09-06T20:51:15.570Z,19.63
2022-09-06T20:56:14.467Z,11.75
2022-09-06T20:58:41.580Z,11.63
2022-09-06T21:01:16.688Z,11.82
2022-09-06T21:03:43.448Z,8.00
2022-09-06T21:06:12.336Z,12.07
2022-09-06T21:08:42.848Z,10.50
2022-09-06T21:11:10.451Z,15.18
2022-09-06T21:13:37.592Z,11.60
2022-09-06T21:16:06.106Z,20.02
2022-09-06T21:18:34.013Z,15.77
2022-09-06T21:21:03.213Z,12.63
2022-09-06T21:23:32.069Z,13.02
2022-09-06T21:26:07.189Z,11.45
2022-09-06T21:28:37.153Z,15.07
2022-09-06T21:31:09.667Z,11.40
2022-09-06T21:33:37.853Z,10.23
2022-09-06T21:36:09.312Z,13.13
2022-09-06T21:38:40.928Z,15.23
2022-09-06T21:41:08.956Z,7.32
2022-09-06T21:43:35.915Z,10.35
2022-09-06T21:46:04.677Z,14.27
2022-09-06T21:48:31.773Z,16.45
2022-09-06T21:50:58.566Z,12.18
2022-09-06T21:53:27.116Z,17.23
2022-09-06T21:56:02.904Z,14.55
2022-09-06T21:58:30.283Z,13.32
2022-09-06T22:00:59.244Z,16.70
2022-09-06T22:03:30.389Z,16.77
2022-09-06T22:05:57.263Z,13.85
2022-09-06T22:08:25.397Z,13.82
2022-09-06T22:10:53.561Z,16.00
2022-09-06T22:13:21.681Z,15.68
2022-09-06T22:15:49.640Z,13.48
2022-09-06T22:18:16.348Z,16.65
2022-09-06T22:20:44.336Z,9.63
2022-09-06T22:23:12.520Z,10.77
2022-09-06T22:25:39.175Z,12.57
2022-09-06T22:28:07.725Z,11.52
2022-09-06T22:30:34.737Z,13.40
2022-09-06T22:33:01.807Z,10.90
2022-09-06T22:35:28.533Z,10.25
2022-09-06T22:37:55.237Z,14.45
2022-09-06T22:40:21.904Z,10.13
2022-09-06T22:42:49.335Z,12.85
2022-09-06T22:45:16.397Z,12.15
2022-09-06T22:47:43.150Z,11.70
2022-09-06T22:50:10.517Z,12.63
2022-09-06T22:52:37.249Z,10.90
2022-09-06T22:55:05.944Z,9.45
2022-09-06T22:57:33.767Z,15.73
2022-09-06T23:00:00.496Z,13.88
2022-09-06T23:02:27.216Z,11.65
2022-09-06T23:04:58.125Z,9.70
2022-09-06T23:07:25.330Z,9.85
2022-09-06T23:09:52.764Z,8.93
2022-09-06T23:12:19.518Z,11.32
2022-09-06T23:14:46.168Z,10.18
2022-09-06T23:17:14.718Z,11.50
2022-09-06T23:19:41.533Z,7.45
2022-09-06T23:22:08.213Z,10.48
2022-09-06T23:24:35.013Z,7.80
2022-09-06T23:27:04.477Z,10.20
2022-09-06T23:29:31.768Z,14.20
2022-09-06T23:31:58.513Z,13.10
2022-09-06T23:34:25.251Z,17.98
2022-09-06T23:36:53.231Z,12.77
2022-09-06T23:39:19.900Z,13.15
2022-09-06T23:41:46.562Z,13.30
2022-09-06T23:44:13.290Z,13.07
2022-09-06T23:46:40.029Z,9.07
2022-09-06T23:49:07.039Z,12.20
2022-09-06T23:51:33.984Z,11.63
2022-09-06T23:54:01.211Z,10.32
2022-09-06T23:56:27.981Z,10.82
2022-09-06T23:58:55.000Z,10.10
